Terminal Aerodrome Forecast
Issued by NWS Cleveland, OH

Home | Current Version | Previous Version | Text Only | Print | Product List | Glossary On
Versions: 1 2 3 4 5 6 7 8 9 10 11 12 13 14 15 16 17 18 19 20
000
FTUS41 KCLE 061100
TAFYNG
TAF
KYNG 061136Z 0612/0712 13005KT 2SM BR BKN035 OVC040
      TEMPO 0612/0613 3/4SM BR SCT035
     FM061300 VRB05KT 4SM BR SCT015
     FM061500 33006KT P6SM BKN018
     FM061900 VRB05KT P6SM SCT030 BKN250
     FM070500 VRB03KT 4SM BR SCT250
     FM070800 00000KT 2SM BR SCT004=

USA.gov is the U.S. government's official web portal to all federal, state and local government web resources and services.